createdAt,value
2018-09-02T00:03:16.988Z,3.60
2018-09-02T00:05:51.550Z,3.87
2018-09-02T00:11:43.457Z,3.40
2018-09-02T00:14:42.374Z,3.20
2018-09-02T00:17:24.348Z,3.40
2018-09-02T00:19:58.792Z,3.60
2018-09-02T00:28:30.613Z,3.17
2018-09-02T00:31:14.043Z,3.23
2018-09-02T00:33:51.343Z,3.47
2018-09-02T00:36:27.289Z,3.23
2018-09-02T00:39:03.909Z,3.20
2018-09-02T00:47:21.713Z,3.30
2018-09-02T00:50:02.245Z,3.50
2018-09-02T00:52:37.425Z,3.47
2018-09-02T00:55:47.469Z,3.10
2018-09-02T01:01:13.325Z,2.90
2018-09-02T01:03:49.569Z,3.80
2018-09-02T01:09:12.020Z,3.40
2018-09-02T01:11:49.531Z,3.57
2018-09-02T01:14:25.122Z,3.10
2018-09-02T01:16:59.839Z,3.30
2018-09-02T01:19:35.096Z,3.90
2018-09-02T01:22:20.269Z,3.30
2018-09-02T01:24:57.373Z,3.40
2018-09-02T01:27:32.419Z,3.27
2018-09-02T01:30:06.687Z,3.53
2018-09-02T01:32:57.947Z,3.33
2018-09-02T01:35:32.521Z,3.30
2018-09-02T01:38:06.835Z,3.50
2018-09-02T01:40:49.002Z,3.80
2018-09-02T01:43:27.182Z,3.67
2018-09-02T01:46:02.549Z,3.73
2018-09-02T01:48:37.969Z,3.87
2018-09-02T01:51:27.553Z,3.60
2018-09-02T01:54:10.653Z,4.27
2018-09-02T01:56:44.746Z,4.40
2018-09-02T01:59:20.205Z,4.27
2018-09-02T02:01:59.027Z,4.47
2018-09-02T02:04:38.430Z,4.63
2018-09-02T02:07:13.402Z,4.53
2018-09-02T02:09:48.144Z,4.50
2018-09-02T02:15:10.540Z,4.50
2018-09-02T02:17:50.991Z,4.40
2018-09-02T02:20:26.192Z,4.33
2018-09-02T02:23:01.403Z,4.47
2018-09-02T02:25:35.491Z,4.33
2018-09-02T02:30:56.733Z,4.30
2018-09-02T02:33:31.142Z,4.50
2018-09-02T02:36:05.137Z,4.00
2018-09-02T02:38:50.284Z,3.87
2018-09-02T02:41:24.443Z,3.93
2018-09-02T02:43:58.537Z,4.17
2018-09-02T02:47:04.838Z,3.73
2018-09-02T02:49:39.833Z,3.50
2018-09-02T02:52:13.875Z,4.00
2018-09-02T02:54:51.707Z,4.07
2018-09-02T02:57:42.332Z,3.50
2018-09-02T03:00:23.628Z,3.60
2018-09-02T03:02:58.244Z,3.80
2018-09-02T03:05:47.362Z,3.70
2018-09-02T03:08:24.437Z,3.50
2018-09-02T03:10:58.841Z,3.30
2018-09-02T03:13:33.331Z,3.93
2018-09-02T03:16:11.070Z,3.70
2018-09-02T03:18:48.518Z,3.70
2018-09-02T03:21:27.397Z,3.50
2018-09-02T03:24:05.745Z,3.30
2018-09-02T03:29:20.342Z,3.43
2018-09-02T03:31:56.731Z,3.20
2018-09-02T03:34:31.049Z,3.40
2018-09-02T03:37:05.592Z,3.60
2018-09-02T03:39:43.459Z,3.27
2018-09-02T03:42:25.866Z,3.20
2018-09-02T03:45:02.833Z,3.27
2018-09-02T03:47:38.187Z,3.60
2018-09-02T03:50:17.358Z,4.33
2018-09-02T03:52:51.526Z,5.33
2018-09-02T03:55:25.738Z,5.10
2018-09-02T03:57:59.690Z,5.37
2018-09-02T04:00:33.717Z,5.47
2018-09-02T04:03:08.190Z,5.10
2018-09-02T04:05:42.056Z,5.27
2018-09-02T04:08:16.111Z,4.23
2018-09-02T04:10:50.934Z,4.00
2018-09-02T04:13:30.221Z,4.67
2018-09-02T04:16:04.249Z,4.63
2018-09-02T04:18:42.561Z,4.27
2018-09-02T04:21:23.685Z,4.40
2018-09-02T04:23:58.709Z,4.17
2018-09-02T04:29:11.894Z,4.17
2018-09-02T04:31:46.799Z,4.47
2018-09-02T04:34:21.156Z,4.50
2018-09-02T04:37:01.062Z,4.80
2018-09-02T04:39:35.228Z,4.90
2018-09-02T04:42:33.810Z,4.03
2018-09-02T04:45:08.435Z,4.17
2018-09-02T04:47:42.679Z,4.47
2018-09-02T04:50:20.050Z,4.33
2018-09-02T04:52:55.345Z,4.43
2018-09-02T04:55:40.313Z,3.90
2018-09-02T04:58:18.324Z,3.93
2018-09-02T05:00:53.193Z,4.20
2018-09-02T05:03:29.010Z,3.70
2018-09-02T05:06:03.544Z,4.00
2018-09-02T05:08:40.598Z,3.83
2018-09-02T05:11:14.936Z,3.83
2018-09-02T05:13:49.142Z,3.80
2018-09-02T05:16:28.747Z,3.80
2018-09-02T05:19:09.504Z,3.70
2018-09-02T05:21:51.283Z,3.63
2018-09-02T05:28:20.743Z,3.90
2018-09-02T05:35:48.142Z,3.20
2018-09-02T05:38:45.194Z,3.57
2018-09-02T05:42:34.419Z,3.60
2018-09-02T05:49:32.356Z,3.90
2018-09-02T05:52:13.731Z,4.30
2018-09-02T05:55:03.790Z,4.43
2018-09-02T06:15:43.297Z,3.83
2018-09-02T06:18:24.243Z,4.00
2018-09-02T06:21:17.804Z,4.33
2018-09-02T06:24:02.564Z,3.90
2018-09-02T06:26:37.680Z,4.27
2018-09-02T06:29:12.089Z,4.40
2018-09-02T06:31:46.119Z,4.00
2018-09-02T06:34:20.078Z,3.93
2018-09-02T06:36:55.301Z,4.10
2018-09-02T06:39:29.425Z,3.70
2018-09-02T06:42:03.429Z,4.23
2018-09-02T06:44:37.202Z,3.90
2018-09-02T06:47:11.029Z,4.00
2018-09-02T06:49:44.928Z,4.30
2018-09-02T06:52:18.725Z,4.50
2018-09-02T06:54:52.670Z,4.10
2018-09-02T06:57:27.662Z,4.63
2018-09-02T07:00:01.600Z,3.90
2018-09-02T07:02:35.453Z,4.10
2018-09-02T07:05:09.267Z,3.83
2018-09-02T07:07:42.983Z,3.30
2018-09-02T07:10:17.045Z,3.70
2018-09-02T07:12:50.841Z,3.47
2018-09-02T07:15:24.666Z,3.40
2018-09-02T07:17:58.580Z,3.40
2018-09-02T07:20:33.101Z,3.77
2018-09-02T07:23:07.247Z,3.47
2018-09-02T07:25:41.302Z,3.30
2018-09-02T07:28:15.114Z,3.40
2018-09-02T07:30:48.901Z,3.13
2018-09-02T07:33:22.896Z,4.03
2018-09-02T07:35:56.894Z,3.17
2018-09-02T07:38:30.789Z,3.30
2018-09-02T07:41:04.844Z,3.23
2018-09-02T07:43:38.755Z,3.30
2018-09-02T07:46:12.485Z,3.20
2018-09-02T07:48:46.329Z,3.50
2018-09-02T07:51:20.532Z,3.20
2018-09-02T07:53:55.538Z,3.30
2018-09-02T07:56:29.432Z,3.10
2018-09-02T07:59:03.405Z,3.33
2018-09-02T08:01:37.276Z,3.53
2018-09-02T08:04:11.289Z,3.20
2018-09-02T08:06:45.284Z,3.00
2018-09-02T08:09:19.106Z,2.90
2018-09-02T08:11:53.253Z,2.90
2018-09-02T08:14:27.021Z,3.10
2018-09-02T08:17:01.127Z,2.70
2018-09-02T08:19:34.983Z,2.80
2018-09-02T08:22:08.769Z,3.00
2018-09-02T08:24:42.621Z,2.60
2018-09-02T08:27:16.441Z,2.50
2018-09-02T08:29:50.093Z,2.60
2018-09-02T08:32:23.935Z,2.90
2018-09-02T08:34:57.632Z,2.60
2018-09-02T08:37:31.569Z,2.57
2018-09-02T08:40:05.430Z,2.53
2018-09-02T08:42:39.578Z,2.40
2018-09-02T08:45:13.462Z,2.43
2018-09-02T08:47:47.287Z,2.40
2018-09-02T08:50:21.255Z,2.50
2018-09-02T08:52:55.146Z,2.50
2018-09-02T08:55:29.011Z,2.47
2018-09-02T08:58:02.814Z,2.43
2018-09-02T09:00:36.722Z,2.60
2018-09-02T09:03:10.588Z,2.50
2018-09-02T09:05:44.352Z,2.40
2018-09-02T09:08:18.469Z,2.57
2018-09-02T09:10:53.061Z,2.43
2018-09-02T09:13:26.955Z,2.50
2018-09-02T09:16:00.926Z,2.17
2018-09-02T09:18:34.871Z,2.27
2018-09-02T09:21:08.742Z,2.67
2018-09-02T09:23:42.513Z,2.40
2018-09-02T09:26:16.414Z,2.50
2018-09-02T09:28:50.255Z,2.70
2018-09-02T09:31:24.203Z,2.37
2018-09-02T09:33:57.947Z,2.30
2018-09-02T09:36:31.877Z,2.30
2018-09-02T09:39:06.963Z,2.40
2018-09-02T09:41:40.770Z,2.33
2018-09-02T09:44:14.627Z,2.30
2018-09-02T09:46:48.412Z,2.83
2018-09-02T09:49:22.351Z,1.97
2018-09-02T09:51:56.259Z,2.37
2018-09-02T09:54:30.019Z,2.10
2018-09-02T09:57:03.862Z,2.13
2018-09-02T09:59:37.774Z,2.57
2018-09-02T10:02:11.639Z,2.20
2018-09-02T10:04:45.558Z,2.20
2018-09-02T10:07:19.396Z,2.10
2018-09-02T10:09:53.380Z,2.43
2018-09-02T10:12:27.281Z,2.43
2018-09-02T10:15:01.085Z,2.07
2018-09-02T10:17:34.956Z,2.07
2018-09-02T10:20:08.928Z,2.13
2018-09-02T10:22:42.772Z,2.40
2018-09-02T10:25:16.817Z,2.10
2018-09-02T10:27:50.761Z,2.00
2018-09-02T10:30:24.576Z,2.00
2018-09-02T10:32:58.695Z,2.20
2018-09-02T10:35:32.649Z,1.90
2018-09-02T10:38:06.281Z,2.30
2018-09-02T10:40:40.195Z,1.90
2018-09-02T10:43:14.012Z,1.90
2018-09-02T10:45:47.792Z,1.97
2018-09-02T10:48:22.718Z,2.07
2018-09-02T10:50:56.723Z,1.80
2018-09-02T10:53:31.949Z,1.83
2018-09-02T10:56:06.120Z,1.80
2018-09-02T10:58:39.964Z,1.57
2018-09-02T11:01:14.651Z,2.10
2018-09-02T11:03:49.534Z,1.70
2018-09-02T11:06:23.440Z,1.47
2018-09-02T11:08:57.257Z,1.60
2018-09-02T11:11:31.169Z,1.87
2018-09-02T11:14:05.201Z,1.60
2018-09-02T11:16:39.444Z,1.70
2018-09-02T11:19:13.157Z,2.10
2018-09-02T11:21:47.168Z,1.70
2018-09-02T11:24:20.984Z,1.70
2018-09-02T11:26:55.000Z,1.90
2018-09-02T11:29:29.036Z,1.63
2018-09-02T11:32:03.382Z,1.67
2018-09-02T11:34:37.165Z,1.60
2018-09-02T11:37:11.212Z,1.90
2018-09-02T11:39:45.080Z,1.73
2018-09-02T11:42:18.994Z,1.80
2018-09-02T11:44:52.750Z,1.60
2018-09-02T11:47:26.569Z,1.70
2018-09-02T11:50:00.356Z,1.87
2018-09-02T11:52:34.151Z,1.80
2018-09-02T11:55:08.094Z,2.17
2018-09-02T11:57:42.097Z,1.53
2018-09-02T12:00:15.949Z,1.90
2018-09-02T12:02:49.968Z,2.10
2018-09-02T12:05:23.852Z,1.70
2018-09-02T12:07:57.593Z,1.53
2018-09-02T12:10:31.432Z,1.70
2018-09-02T12:13:05.354Z,1.70
2018-09-02T12:15:39.099Z,2.70
2018-09-02T12:18:12.954Z,2.77
2018-09-02T12:20:46.743Z,1.83
2018-09-02T12:23:20.943Z,2.00
2018-09-02T12:25:54.720Z,2.03
2018-09-02T12:28:28.707Z,1.90
2018-09-02T12:31:02.615Z,1.80
2018-09-02T12:33:36.569Z,1.50
2018-09-02T12:36:10.654Z,1.77
2018-09-02T12:38:44.383Z,1.90
2018-09-02T12:41:18.197Z,1.70
2018-09-02T12:43:51.965Z,2.20
2018-09-02T12:46:26.073Z,2.00
2018-09-02T12:48:59.912Z,1.73
2018-09-02T12:51:33.793Z,2.23
2018-09-02T12:54:07.828Z,1.87
2018-09-02T12:56:41.737Z,1.93
2018-09-02T12:59:15.662Z,2.30
2018-09-02T13:01:49.604Z,1.90
2018-09-02T13:04:24.889Z,1.90
2018-09-02T13:06:59.901Z,2.00
2018-09-02T13:09:34.002Z,2.10
2018-09-02T13:12:07.940Z,2.00
2018-09-02T13:14:41.761Z,2.03
2018-09-02T13:17:15.719Z,1.90
2018-09-02T13:19:49.543Z,2.00
2018-09-02T13:22:23.664Z,1.83
2018-09-02T13:24:57.568Z,1.90
2018-09-02T13:27:31.407Z,2.23
2018-09-02T13:30:05.922Z,2.20
2018-09-02T13:32:40.397Z,2.00
2018-09-02T13:35:14.171Z,2.00
2018-09-02T13:37:48.097Z,2.00
2018-09-02T13:40:22.045Z,2.20
2018-09-02T13:42:55.877Z,2.20
2018-09-02T13:45:29.760Z,2.30
2018-09-02T13:48:03.724Z,2.20
2018-09-02T13:50:37.452Z,2.10
2018-09-02T13:53:11.323Z,2.10
2018-09-02T13:55:45.145Z,2.00
2018-09-02T13:58:19.016Z,2.20
2018-09-02T14:00:53.105Z,2.60
2018-09-02T14:03:27.058Z,2.10
2018-09-02T14:06:01.019Z,2.70
2018-09-02T14:08:35.181Z,2.40
2018-09-02T14:11:09.120Z,2.80
2018-09-02T14:13:43.097Z,2.63
2018-09-02T14:16:17.055Z,2.30
2018-09-02T14:18:50.808Z,2.70
2018-09-02T14:21:24.643Z,2.13
2018-09-02T14:23:58.513Z,2.30
2018-09-02T14:26:32.603Z,2.70
2018-09-02T14:29:06.367Z,2.30
2018-09-02T14:31:40.335Z,2.57
2018-09-02T14:34:14.074Z,2.30
2018-09-02T14:36:48.078Z,2.67
2018-09-02T14:39:21.828Z,2.13
2018-09-02T14:41:55.760Z,2.13
2018-09-02T14:44:29.563Z,2.10
2018-09-02T14:47:03.568Z,2.50
2018-09-02T14:49:37.282Z,2.50
2018-09-02T14:52:11.208Z,2.13
2018-09-02T14:54:44.882Z,2.10
2018-09-02T14:57:18.805Z,2.07
2018-09-02T14:59:52.602Z,2.20
2018-09-02T15:02:26.408Z,2.40
2018-09-02T15:05:00.451Z,2.67
2018-09-02T15:07:34.425Z,2.50
2018-09-02T15:10:08.302Z,2.57
2018-09-02T15:12:42.248Z,2.40
2018-09-02T15:15:16.114Z,2.37
2018-09-02T15:17:49.951Z,2.60
2018-09-02T15:20:23.754Z,2.80
2018-09-02T15:22:57.730Z,2.50
2018-09-02T15:25:31.726Z,2.80
2018-09-02T15:28:05.625Z,2.83
2018-09-02T15:30:39.462Z,2.20
2018-09-02T15:33:13.316Z,2.40
2018-09-02T15:35:47.222Z,2.20
2018-09-02T15:38:21.190Z,2.10
2018-09-02T15:40:55.072Z,2.40
2018-09-02T15:43:28.875Z,2.40
2018-09-02T15:46:02.765Z,2.10
2018-09-02T15:48:36.800Z,2.60
2018-09-02T15:51:10.621Z,2.47
2018-09-02T15:53:44.575Z,2.40
2018-09-02T15:56:18.513Z,2.27
2018-09-02T15:58:52.474Z,2.27
2018-09-02T16:01:26.403Z,2.10
2018-09-02T16:04:00.326Z,1.93
2018-09-02T16:06:34.288Z,2.07
2018-09-02T16:09:08.857Z,2.20
2018-09-02T16:11:42.816Z,2.30
2018-09-02T16:14:16.691Z,2.60
2018-09-02T16:16:50.552Z,2.27
2018-09-02T16:19:24.379Z,2.47
2018-09-02T16:21:58.254Z,2.17
2018-09-02T16:24:32.152Z,2.60
2018-09-02T16:27:05.995Z,2.80
2018-09-02T16:29:39.871Z,3.23
2018-09-02T16:32:13.952Z,2.30
2018-09-02T16:34:47.941Z,14.00
2018-09-02T16:37:21.715Z,3.10
2018-09-02T16:39:55.438Z,2.20
2018-09-02T16:42:30.270Z,2.03
2018-09-02T16:45:04.374Z,2.20
2018-09-02T16:47:38.155Z,2.60
2018-09-02T16:50:12.193Z,2.10
2018-09-02T16:52:46.060Z,2.40
2018-09-02T16:55:19.765Z,2.40
2018-09-02T16:57:53.502Z,2.50
2018-09-02T17:00:27.517Z,2.30
2018-09-02T17:03:01.321Z,2.37
2018-09-02T17:05:35.196Z,2.53
2018-09-02T17:08:09.780Z,2.40
2018-09-02T17:10:43.826Z,2.17
2018-09-02T17:13:17.926Z,2.30
2018-09-02T17:15:51.807Z,2.67
2018-09-02T17:18:25.873Z,2.80
2018-09-02T17:20:59.786Z,2.33
2018-09-02T17:23:33.768Z,2.50
2018-09-02T17:26:07.913Z,2.57
2018-09-02T17:28:41.749Z,2.63
2018-09-02T17:31:15.560Z,2.30
2018-09-02T17:33:49.414Z,2.63
2018-09-02T17:36:23.332Z,2.47
2018-09-02T17:38:57.079Z,2.57
2018-09-02T17:41:30.981Z,2.63
2018-09-02T17:44:04.812Z,2.40
2018-09-02T17:46:38.712Z,2.47
2018-09-02T17:49:12.550Z,2.57
2018-09-02T17:51:46.517Z,3.63
2018-09-02T17:54:21.465Z,3.40
2018-09-02T17:56:56.494Z,2.43
2018-09-02T17:59:30.423Z,2.80
2018-09-02T18:02:04.443Z,3.60
2018-09-02T18:04:38.357Z,3.10
2018-09-02T18:07:12.260Z,2.80
2018-09-02T18:09:46.382Z,2.73
2018-09-02T18:12:20.320Z,2.50
2018-09-02T18:14:54.479Z,2.30
2018-09-02T18:17:28.414Z,2.70
2018-09-02T18:20:02.448Z,2.97
2018-09-02T18:22:36.214Z,2.90
2018-09-02T18:25:10.581Z,2.97
2018-09-02T18:27:47.327Z,5.10
2018-09-02T18:30:21.317Z,3.20
2018-09-02T18:32:55.320Z,2.97
2018-09-02T18:35:29.321Z,3.53
2018-09-02T18:38:03.343Z,5.53
2018-09-02T18:40:37.115Z,3.93
2018-09-02T18:43:10.997Z,3.07
2018-09-02T18:45:44.831Z,3.47
2018-09-02T18:48:18.834Z,3.40
2018-09-02T18:50:52.761Z,3.43
2018-09-02T18:53:26.767Z,3.10
2018-09-02T18:56:00.790Z,3.40
2018-09-02T18:58:34.781Z,3.40
2018-09-02T19:01:08.706Z,3.60
2018-09-02T19:03:42.834Z,3.83
2018-09-02T19:06:17.055Z,3.83
2018-09-02T19:08:50.909Z,3.80
2018-09-02T19:11:56.337Z,3.63
2018-09-02T19:14:30.225Z,3.47
2018-09-02T19:17:04.237Z,3.60
2018-09-02T19:19:38.201Z,3.53
2018-09-02T19:22:12.105Z,3.60
2018-09-02T19:24:46.160Z,4.30
2018-09-02T19:27:20.069Z,4.00
2018-09-02T19:29:53.911Z,3.63
2018-09-02T19:32:27.780Z,4.20
2018-09-02T19:35:01.525Z,4.03
2018-09-02T19:37:35.377Z,3.93
2018-09-02T19:40:09.262Z,4.23
2018-09-02T19:42:42.964Z,4.10
2018-09-02T19:45:16.857Z,3.67
2018-09-02T19:47:50.815Z,3.80
2018-09-02T19:50:24.654Z,3.97
2018-09-02T19:52:59.429Z,4.13
2018-09-02T19:55:33.394Z,4.30
2018-09-02T19:58:07.241Z,4.60
2018-09-02T20:00:41.028Z,4.27
2018-09-02T20:03:14.966Z,3.80
2018-09-02T20:05:48.978Z,4.10
2018-09-02T20:08:22.937Z,4.20
2018-09-02T20:10:56.898Z,4.27
2018-09-02T20:13:30.970Z,4.50
2018-09-02T20:16:04.890Z,3.90
2018-09-02T20:18:39.326Z,4.13
2018-09-02T20:21:13.418Z,4.03
2018-09-02T20:23:47.856Z,3.90
2018-09-02T20:26:22.103Z,4.23
2018-09-02T20:28:56.203Z,4.37
2018-09-02T20:31:30.123Z,4.43
2018-09-02T20:34:04.021Z,4.30
2018-09-02T20:36:37.774Z,4.30
2018-09-02T20:39:11.595Z,4.63
2018-09-02T20:41:46.934Z,4.57
2018-09-02T20:44:21.050Z,4.53
2018-09-02T20:46:55.187Z,4.70
2018-09-02T20:49:29.330Z,4.60
2018-09-02T20:52:08.092Z,4.70
2018-09-02T20:54:42.165Z,4.50
2018-09-02T20:57:16.260Z,4.70
2018-09-02T20:59:52.335Z,4.90
2018-09-02T21:02:27.374Z,4.60
2018-09-02T21:05:01.748Z,4.33
2018-09-02T21:07:37.219Z,4.67
2018-09-02T21:10:15.050Z,4.90
2018-09-02T21:12:49.228Z,4.37
2018-09-02T21:15:33.736Z,4.63
2018-09-02T21:18:56.411Z,4.60
2018-09-02T21:22:10.770Z,5.23
2018-09-02T21:24:45.018Z,5.13
2018-09-02T21:27:20.156Z,4.60
2018-09-02T21:29:55.784Z,4.87
2018-09-02T21:32:31.097Z,4.83
2018-09-02T21:35:09.169Z,4.60
2018-09-02T21:37:43.502Z,4.87
2018-09-02T21:43:08.558Z,4.87
2018-09-02T21:48:28.852Z,5.07
2018-09-02T21:51:06.027Z,4.20
2018-09-02T21:53:43.206Z,4.53
2018-09-02T21:56:29.140Z,4.70
2018-09-02T21:59:04.897Z,4.43
2018-09-02T22:01:41.935Z,4.37
2018-09-02T22:12:15.304Z,4.70
2018-09-02T22:15:07.320Z,4.97
2018-09-02T22:17:45.640Z,4.93
2018-09-02T22:23:13.826Z,4.97
2018-09-02T22:36:34.209Z,4.60
2018-09-02T22:48:56.468Z,4.30
2018-09-02T22:51:34.557Z,4.33
2018-09-02T23:09:12.418Z,4.40
2018-09-02T23:18:56.054Z,4.20
2018-09-02T23:28:50.278Z,4.17
2018-09-02T23:54:36.226Z,4.40
